Time;durP1;ratioP1;P1;durP2;ratioP2;P2;SDS_P1;SDS_P2;PMS_P1;PMS_P2;Temp;Humidity;BMP_temperature;BMP_pressure;BME280_temperature;BME280_humidity;BME280_pressure;Samples;Min_cycle;Max_cycle;Signal;HPM_P1;HPM_P2
2024/04/02 00:01:05;;;;;;;17.05;9.77;;;;;;;6.24;100.00;99919.03;5062440;28;20044;-47
2024/04/02 00:03:32;;;;;;;19.05;10.43;;;;;;;6.20;100.00;99927.34;5067774;28;20407;-52
2024/04/02 00:05:57;;;;;;;20.02;10.48;;;;;;;6.22;100.00;99923.63;5059168;28;20498;-50
2024/04/02 00:08:23;;;;;;;18.13;11.00;;;;;;;6.21;100.00;99921.94;5073220;28;20139;-50
2024/04/02 00:10:49;;;;;;;18.73;10.77;;;;;;;6.16;100.00;99913.56;5055358;28;20504;-52
2024/04/02 00:13:15;;;;;;;18.92;11.43;;;;;;;6.19;100.00;99918.56;5063016;28;20055;-50
2024/04/02 00:15:48;;;;;;;18.33;10.52;;;;;;;6.15;100.00;99919.81;5052696;28;20484;-47
2024/04/02 00:18:18;;;;;;;17.05;10.30;;;;;;;6.18;100.00;99929.31;5061819;28;20055;-50
2024/04/02 00:20:44;;;;;;;22.60;10.98;;;;;;;6.11;100.00;99928.97;5056205;28;20396;-49
2024/04/02 00:23:10;;;;;;;20.10;10.57;;;;;;;6.01;100.00;99920.13;5060836;28;20045;-49
2024/04/02 00:25:36;;;;;;;19.48;11.50;;;;;;;5.94;100.00;99925.06;5051539;28;20048;-48
2024/04/02 00:28:03;;;;;;;18.75;11.48;;;;;;;5.97;100.00;99926.63;5051091;28;20052;-47
2024/04/02 00:30:29;;;;;;;20.23;11.57;;;;;;;5.86;100.00;99922.22;5052563;28;20045;-47
2024/04/02 00:32:56;;;;;;;17.63;10.77;;;;;;;5.90;100.00;99926.31;5052354;28;20115;-50
2024/04/02 00:35:23;;;;;;;17.92;10.45;;;;;;;5.93;100.00;99920.75;5050169;28;20432;-48
2024/04/02 00:37:50;;;;;;;20.08;11.18;;;;;;;5.94;100.00;99925.06;5058101;28;20044;-53
2024/04/02 00:40:17;;;;;;;22.60;12.20;;;;;;;6.08;100.00;99926.56;5042377;28;20071;-52
2024/04/02 00:42:44;;;;;;;18.42;11.23;;;;;;;6.36;100.00;99923.28;5060817;28;20844;-51
2024/04/02 00:45:09;;;;;;;19.80;11.43;;;;;;;6.30;100.00;99929.09;5064182;28;20051;-49
2024/04/02 00:47:35;;;;;;;24.58;11.50;;;;;;;6.32;100.00;99926.34;5055250;28;20426;-47
2024/04/02 00:50:03;;;;;;;20.35;10.82;;;;;;;6.40;100.00;99926.50;5068053;28;20046;-50
2024/04/02 00:52:29;;;;;;;19.02;12.77;;;;;;;6.27;100.00;99929.34;5064327;28;20067;-49
2024/04/02 00:54:57;;;;;;;18.15;11.35;;;;;;;6.37;100.00;99932.06;5058279;28;20051;-51
2024/04/02 00:57:22;;;;;;;17.88;10.98;;;;;;;6.48;100.00;99927.53;5041481;28;20052;-52
2024/04/02 00:59:48;;;;;;;19.33;12.07;;;;;;;6.49;100.00;99931.88;5048412;28;20049;-54
2024/04/02 01:02:14;;;;;;;20.65;11.02;;;;;;;6.41;100.00;99936.97;5072263;28;20471;-48
2024/04/02 01:04:41;;;;;;;21.35;11.75;;;;;;;6.49;100.00;99939.81;5053657;28;20045;-50
2024/04/02 01:07:08;;;;;;;21.98;12.18;;;;;;;6.35;100.00;99936.66;5060586;28;20044;-45
2024/04/02 01:09:34;;;;;;;24.42;13.55;;;;;;;6.34;100.00;99938.44;5059900;28;20048;-52
2024/04/02 01:12:01;;;;;;;18.15;10.98;;;;;;;6.34;100.00;99941.09;5060896;28;20456;-50
2024/04/02 01:14:27;;;;;;;21.23;11.65;;;;;;;6.27;100.00;99942.59;5055788;28;20056;-52
2024/04/02 01:16:52;;;;;;;22.75;13.55;;;;;;;6.31;100.00;99940.53;5056982;28;20111;-52
2024/04/02 01:19:18;;;;;;;25.70;11.43;;;;;;;6.31;100.00;99940.53;5055900;28;20139;-49
2024/04/02 01:21:44;;;;;;;18.42;11.13;;;;;;;6.26;100.00;99950.66;5055799;28;20136;-52
2024/04/02 01:24:10;;;;;;;21.48;12.20;;;;;;;6.08;100.00;99947.75;5055428;28;20519;-50
2024/04/02 01:26:35;;;;;;;20.52;12.15;;;;;;;6.09;100.00;99946.78;5061864;28;20511;-47
2024/04/02 01:29:03;;;;;;;20.35;13.23;;;;;;;6.13;100.00;99952.63;5059555;28;20139;-46
2024/04/02 01:31:32;;;;;;;21.30;12.68;;;;;;;6.09;100.00;99947.63;5055778;28;20410;-54
2024/04/02 01:33:59;;;;;;;21.00;13.27;;;;;;;6.16;100.00;99942.66;5060770;28;20048;-51
2024/04/02 01:36:25;;;;;;;22.90;13.32;;;;;;;6.12;100.00;99940.41;5043714;28;20448;-51
2024/04/02 01:38:50;;;;;;;18.55;11.50;;;;;;;6.38;100.00;99939.88;5042771;28;20087;-53
2024/04/02 01:41:16;;;;;;;17.77;13.13;;;;;;;6.24;100.00;99942.84;5043370;28;20057;-51
2024/04/02 01:43:42;;;;;;;19.52;12.27;;;;;;;6.41;100.00;99939.59;5061164;28;20353;-52
2024/04/02 01:46:08;;;;;;;23.10;13.98;;;;;;;6.51;100.00;99942.31;5064603;28;20581;-49
2024/04/02 01:48:33;;;;;;;18.45;12.68;;;;;;;6.62;100.00;99941.41;5061454;28;20119;-50
2024/04/02 01:50:59;;;;;;;24.75;13.27;;;;;;;6.58;100.00;99932.06;5049485;28;20041;-52
2024/04/02 01:53:25;;;;;;;17.33;11.40;;;;;;;6.72;100.00;99940.50;5040713;28;20070;-51
2024/04/02 01:55:51;;;;;;;18.90;12.52;;;;;;;6.61;100.00;99937.91;5043686;28;20552;-49
2024/04/02 01:58:17;;;;;;;17.85;11.73;;;;;;;6.60;100.00;99946.00;5041599;28;20048;-51
2024/04/02 02:00:43;;;;;;;18.67;11.82;;;;;;;6.55;100.00;99948.19;5043150;28;20606;-48
2024/04/02 02:03:09;;;;;;;17.60;11.52;;;;;;;6.63;100.00;99945.72;5040643;28;20049;-48
2024/04/02 02:05:35;;;;;;;16.73;11.57;;;;;;;6.79;100.00;99956.72;5041739;28;20488;-50
2024/04/02 02:08:00;;;;;;;20.95;11.35;;;;;;;6.62;100.00;99954.63;5043221;28;20435;-51
2024/04/02 02:10:26;;;;;;;18.15;10.98;;;;;;;6.57;100.00;99957.69;5041353;28;20044;-55
2024/04/02 02:12:52;;;;;;;17.27;10.30;;;;;;;6.56;100.00;99953.34;5042116;28;20045;-51
2024/04/02 02:15:42;;;;;;;16.95;10.65;;;;;;;6.75;100.00;99947.34;5040852;28;20403;-52
2024/04/02 02:18:08;;;;;;;16.38;10.68;;;;;;;6.70;100.00;99949.53;5042885;28;20052;-51
2024/04/02 02:20:34;;;;;;;14.75;9.77;;;;;;;6.65;100.00;99949.09;5041225;28;20640;-53
2024/04/02 02:23:00;;;;;;;14.85;9.00;;;;;;;6.55;100.00;99950.84;5042987;28;20618;-53
2024/04/02 02:25:27;;;;;;;13.43;9.35;;;;;;;6.65;100.00;99954.38;5055615;28;20104;-48
2024/04/02 02:27:53;;;;;;;14.88;8.32;;;;;;;6.55;100.00;99953.47;5043194;28;20052;-54
2024/04/02 02:30:19;;;;;;;14.25;9.27;;;;;;;6.39;100.00;99949.50;5060313;28;20423;-49
2024/04/02 02:32:44;;;;;;;19.27;9.35;;;;;;;6.51;100.00;99954.72;5043241;28;20053;-46
2024/04/02 02:35:10;;;;;;;18.95;8.48;;;;;;;6.52;100.00;99945.81;5043634;28;20107;-51
2024/04/02 02:37:36;;;;;;;15.05;8.80;;;;;;;6.42;100.00;99940.44;5039516;28;20428;-51
2024/04/02 02:40:03;;;;;;;14.25;8.30;;;;;;;6.47;100.00;99947.03;5043163;28;20408;-48
2024/04/02 02:42:28;;;;;;;15.00;7.80;;;;;;;6.38;100.00;99957.56;5038640;28;20527;-52
2024/04/02 02:44:54;;;;;;;16.50;8.85;;;;;;;6.21;100.00;99956.31;5043036;28;20045;-50
2024/04/02 02:47:20;;;;;;;14.68;7.95;;;;;;;6.35;100.00;99953.38;5056592;28;20045;-51
2024/04/02 02:49:46;;;;;;;14.23;7.88;;;;;;;6.39;100.00;99959.25;5042973;28;20049;-49
2024/04/02 02:52:11;;;;;;;13.27;7.68;;;;;;;6.28;100.00;99968.09;5043179;28;20061;-49
2024/04/02 02:54:38;;;;;;;13.85;7.25;;;;;;;6.15;100.00;99964.78;5042514;28;20040;-52
2024/04/02 02:57:04;;;;;;;17.42;8.27;;;;;;;6.16;100.00;99966.47;5062089;28;20073;-50
2024/04/02 02:59:30;;;;;;;13.85;7.70;;;;;;;6.11;100.00;99971.31;5050134;28;20044;-51
2024/04/02 03:01:56;;;;;;;13.95;7.13;;;;;;;6.23;100.00;99967.63;5051095;28;20596;-52
2024/04/02 03:04:22;;;;;;;14.43;8.52;;;;;;;6.15;100.00;99963.94;5053726;28;20049;-53
2024/04/02 03:06:48;;;;;;;13.15;7.63;;;;;;;6.19;100.00;99965.38;5061129;28;20040;-48
2024/04/02 03:09:14;;;;;;;13.00;7.32;;;;;;;6.15;100.00;99972.72;5057917;28;20079;-51
2024/04/02 03:12:05;;;;;;;14.70;7.60;;;;;;;6.04;100.00;99970.13;5057418;28;20045;-46
2024/04/02 03:14:30;;;;;;;11.93;7.30;;;;;;;6.08;100.00;99972.38;5054374;28;20414;-52
2024/04/02 03:16:56;;;;;;;12.30;7.15;;;;;;;5.93;100.00;99978.09;5056350;28;20049;-51
2024/04/02 03:19:22;;;;;;;12.18;7.88;;;;;;;5.98;100.00;99986.50;5058920;28;20048;-51
2024/04/02 03:21:48;;;;;;;19.20;8.73;;;;;;;5.91;100.00;99990.63;5054651;28;20050;-51
2024/04/02 03:24:14;;;;;;;13.75;7.65;;;;;;;5.98;100.00;99986.50;5054309;28;20143;-49
2024/04/02 03:26:39;;;;;;;13.50;8.38;;;;;;;5.46;100.00;99974.88;5053548;28;20063;-51
2024/04/02 03:29:06;;;;;;;13.82;8.00;;;;;;;5.99;100.00;99983.72;5052493;28;20147;-50
2024/04/02 03:31:32;;;;;;;13.35;8.15;;;;;;;5.99;100.00;99989.00;5057341;28;20576;-50
2024/04/02 03:33:57;;;;;;;16.85;8.77;;;;;;;5.97;100.00;99998.06;5057821;28;20135;-53
2024/04/02 03:36:23;;;;;;;15.00;9.50;;;;;;;5.88;100.00;100001.44;5040422;28;20044;-52
2024/04/02 03:38:49;;;;;;;17.52;8.82;;;;;;;5.77;100.00;100009.41;5068914;28;20455;-45
2024/04/02 03:41:16;;;;;;;15.30;8.98;;;;;;;5.90;100.00;100000.38;5047299;28;20041;-52
2024/04/02 03:43:42;;;;;;;15.02;8.90;;;;;;;5.96;100.00;100001.66;5039288;28;20049;-49
2024/04/02 03:46:10;;;;;;;14.88;9.45;;;;;;;5.68;100.00;100009.19;5043680;28;20045;-50
2024/04/02 03:48:36;;;;;;;12.85;8.57;;;;;;;5.78;100.00;100005.81;5041265;28;20055;-52
2024/04/02 03:51:02;;;;;;;14.73;9.82;;;;;;;5.83;100.00;100008.91;5046054;28;20445;-51
2024/04/02 03:53:28;;;;;;;18.08;10.18;;;;;;;5.73;100.00;100007.97;5043804;28;20053;-48
2024/04/02 03:56:02;;;;;;;14.93;9.40;;;;;;;5.60;100.00;100001.03;5046513;28;20043;-51
2024/04/02 03:58:29;;;;;;;14.90;8.77;;;;;;;5.71;100.00;100012.56;5074887;28;20045;-53
2024/04/02 04:00:56;;;;;;;15.15;9.23;;;;;;;5.66;100.00;100016.41;5052264;28;20055;-49
2024/04/02 04:03:26;;;;;;;18.33;9.73;;;;;;;5.57;100.00;100011.03;5043842;28;20504;-53
2024/04/02 04:06:02;;;;;;;18.55;10.38;;;;;;;5.61;100.00;100015.94;5043031;28;20044;-50
2024/04/02 04:08:31;;;;;;;15.95;8.98;;;;;;;5.62;100.00;100012.31;5043340;28;20045;-54
2024/04/02 04:10:57;;;;;;;17.33;9.90;;;;;;;5.62;100.00;100012.31;5045894;28;20401;-53
2024/04/02 04:13:23;;;;;;;16.60;10.00;;;;;;;5.53;100.00;100006.94;5045096;28;20059;-52
2024/04/02 04:16:00;;;;;;;15.77;9.15;;;;;;;5.60;100.00;100013.41;5045956;28;20045;-50
2024/04/02 04:18:27;;;;;;;21.63;10.18;;;;;;;5.55;100.00;100015.59;5044700;28;20079;-50
2024/04/02 04:20:54;;;;;;;14.85;9.27;;;;;;;5.30;100.00;100019.34;5045820;28;20116;-51
2024/04/02 04:23:20;;;;;;;14.35;9.77;;;;;;;5.43;100.00;100027.13;5044020;28;20045;-49
2024/04/02 04:25:46;;;;;;;13.35;9.45;;;;;;;5.20;100.00;100021.84;5050902;28;20049;-50
2024/04/02 04:28:12;;;;;;;15.48;9.88;;;;;;;5.38;100.00;100029.28;5046837;28;20168;-49
2024/04/02 04:30:37;;;;;;;15.13;9.27;;;;;;;5.46;100.00;100030.38;5039800;28;20079;-49
2024/04/02 04:33:03;;;;;;;17.50;9.43;;;;;;;5.46;100.00;100040.94;5044414;28;20071;-48
2024/04/02 04:35:34;;;;;;;15.23;9.45;;;;;;;5.34;100.00;100036.63;5051912;28;20511;-50
2024/04/02 04:38:00;;;;;;;15.88;9.13;;;;;;;5.35;100.00;100040.09;5059523;28;20174;-52
2024/04/02 04:40:26;;;;;;;13.55;9.13;;;;;;;5.52;100.00;100036.97;5045676;28;20587;-54
2024/04/02 04:42:51;;;;;;;16.23;9.38;;;;;;;5.25;100.00;100050.53;5065590;28;20523;-53
2024/04/02 04:45:17;;;;;;;17.27;9.75;;;;;;;5.35;100.00;100054.16;5062649;28;20083;-49
2024/04/02 04:47:43;;;;;;;13.68;9.23;;;;;;;5.33;100.00;100052.59;5056245;28;20453;-54
2024/04/02 04:50:09;;;;;;;11.18;7.95;;;;;;;5.43;100.00;100049.13;5060630;28;20049;-51
2024/04/02 04:52:35;;;;;;;13.02;9.07;;;;;;;5.13;100.00;100062.03;5060951;28;20052;-50
2024/04/02 04:55:00;;;;;;;17.45;8.45;;;;;;;5.15;100.00;100063.63;5027523;28;20410;-49
2024/04/02 04:57:26;;;;;;;15.18;9.88;;;;;;;5.31;100.00;100058.00;5059432;28;20067;-49
2024/04/02 04:59:52;;;;;;;16.25;9.20;;;;;;;5.22;100.00;100071.94;5023123;28;20522;-50
2024/04/02 05:02:18;;;;;;;17.05;9.13;;;;;;;5.24;100.00;100070.84;5046348;28;20053;-51
2024/04/02 05:04:44;;;;;;;12.27;8.02;;;;;;;5.41;100.00;100066.06;5045067;28;20544;-51
2024/04/02 05:07:21;;;;;;;14.52;8.95;;;;;;;5.30;100.00;100072.19;5058889;28;20053;-52
2024/04/02 05:09:47;;;;;;;14.98;8.73;;;;;;;5.27;100.00;100077.69;5052308;28;20811;-46
2024/04/02 05:12:13;;;;;;;11.75;8.38;;;;;;;5.52;100.00;100081.91;5045288;28;20045;-49
2024/04/02 05:14:38;;;;;;;15.18;8.68;;;;;;;5.48;100.00;100077.81;5059160;28;20128;-54
2024/04/02 05:17:04;;;;;;;14.00;9.07;;;;;;;5.44;100.00;100090.41;5056618;28;20048;-50
2024/04/02 05:19:30;;;;;;;13.32;8.18;;;;;;;5.35;100.00;100092.97;5055313;28;20057;-55
2024/04/02 05:21:55;;;;;;;18.17;9.07;;;;;;;5.33;100.00;100085.16;5059400;28;20496;-54
2024/04/02 05:24:21;;;;;;;16.98;8.50;;;;;;;5.19;100.00;100090.66;5053133;28;20057;-53
2024/04/02 05:26:47;;;;;;;15.68;7.95;;;;;;;5.54;100.00;100094.03;5082801;28;20048;-49
2024/04/02 05:29:15;;;;;;;15.77;8.93;;;;;;;5.65;100.00;100095.81;5058875;28;20578;-51
2024/04/02 05:31:40;;;;;;;12.93;8.18;;;;;;;5.52;100.00;100093.31;5060701;28;20048;-53
2024/04/02 05:34:06;;;;;;;11.18;7.93;;;;;;;5.61;100.00;100094.41;5055691;28;20048;-51
2024/04/02 05:36:32;;;;;;;12.80;7.88;;;;;;;5.80;100.00;100096.41;5061445;28;20056;-49
2024/04/02 05:38:57;;;;;;;13.25;8.40;;;;;;;5.64;100.00;100115.31;5059832;28;20127;-48
2024/04/02 05:41:23;;;;;;;12.45;8.13;;;;;;;5.83;100.00;100106.75;5054891;28;20063;-50
2024/04/02 05:43:49;;;;;;;14.50;8.02;;;;;;;5.90;100.00;100115.88;5056391;28;20139;-50
2024/04/02 05:46:15;;;;;;;14.68;7.95;;;;;;;5.91;100.00;100113.13;5060261;28;20129;-51
2024/04/02 05:48:41;;;;;;;13.77;7.32;;;;;;;6.05;98.63;100114.66;5037143;28;20053;-50
2024/04/02 05:51:07;;;;;;;13.55;7.25;;;;;;;6.48;97.43;100118.13;5081906;28;20484;-48
2024/04/02 05:53:32;;;;;;;10.55;6.93;;;;;;;6.39;96.83;100112.75;5056677;28;20538;-46
2024/04/02 05:56:00;;;;;;;10.82;6.60;;;;;;;6.22;97.15;100119.41;5061960;28;20044;-50
2024/04/02 05:58:25;;;;;;;10.98;6.75;;;;;;;6.19;97.49;100122.31;5057803;28;20040;-50
2024/04/02 06:01:02;;;;;;;13.63;6.72;;;;;;;6.40;97.19;100125.00;5057685;28;20497;-48
2024/04/02 06:03:27;;;;;;;10.63;7.30;;;;;;;6.31;97.91;100120.47;5073185;28;20051;-52
2024/04/02 06:05:53;;;;;;;10.70;6.93;;;;;;;6.43;97.82;100128.25;5056291;28;20041;-47
2024/04/02 06:08:19;;;;;;;9.43;6.55;;;;;;;5.95;99.23;100129.56;5039415;28;20055;-47
2024/04/02 06:10:45;;;;;;;14.23;7.20;;;;;;;6.23;99.16;100134.34;5050210;28;20110;-52
2024/04/02 06:13:10;;;;;;;10.15;7.03;;;;;;;6.30;99.21;100138.16;5060292;28;20055;-50
2024/04/02 06:15:36;;;;;;;13.18;7.60;;;;;;;6.58;97.98;100143.84;5053616;28;20052;-51
2024/04/02 06:18:02;;;;;;;12.50;7.20;;;;;;;6.46;97.15;100135.94;5059334;28;20052;-50
2024/04/02 06:20:27;;;;;;;10.90;7.25;;;;;;;6.26;98.47;100147.31;5054208;28;20526;-50
2024/04/02 06:22:53;;;;;;;13.60;7.25;;;;;;;6.52;99.13;100150.50;5055517;28;20047;-50
2024/04/02 06:25:19;;;;;;;12.43;7.07;;;;;;;6.65;98.59;100151.16;5042172;28;20056;-51
2024/04/02 06:27:45;;;;;;;15.88;7.15;;;;;;;6.65;97.46;100156.47;5048199;28;20051;-53
2024/04/02 06:30:11;;;;;;;11.88;7.22;;;;;;;6.66;98.90;100146.72;5042004;28;20073;-51
2024/04/02 06:32:36;;;;;;;10.50;6.78;;;;;;;7.00;97.46;100158.03;5041584;28;21080;-49
2024/04/02 06:35:03;;;;;;;11.52;6.57;;;;;;;6.77;98.60;100155.47;5041470;28;20077;-52
2024/04/02 06:37:30;;;;;;;19.77;8.70;;;;;;;6.82;98.42;100157.72;5039043;28;20094;-48
2024/04/02 06:39:56;;;;;;;10.73;6.63;;;;;;;6.76;98.28;100164.38;5043162;28;20055;-53
2024/04/02 06:42:31;;;;;;;12.75;6.47;;;;;;;7.00;98.91;100160.69;5038928;28;20059;-49
2024/04/02 06:44:57;;;;;;;11.98;7.45;;;;;;;7.30;96.55;100163.38;5044576;28;20504;-52
2024/04/02 06:47:23;;;;;;;11.07;7.13;;;;;;;7.22;97.53;100169.31;5045028;28;20045;-50
2024/04/02 06:49:48;;;;;;;12.73;6.95;;;;;;;7.38;97.71;100165.38;5045071;28;20048;-46
2024/04/02 06:52:14;;;;;;;10.48;6.80;;;;;;;7.42;97.14;100169.47;5062881;28;20083;-51
2024/04/02 06:54:40;;;;;;;11.73;6.35;;;;;;;7.25;97.59;100165.59;5041266;28;20467;-49
2024/04/02 06:57:08;;;;;;;13.63;7.05;;;;;;;7.44;98.67;100167.50;5045896;28;20080;-51
2024/04/02 06:59:33;;;;;;;12.00;6.57;;;;;;;7.50;97.19;100166.97;5044269;28;20049;-54
2024/04/02 07:01:59;;;;;;;10.73;6.72;;;;;;;7.76;95.87;100164.75;5040405;28;20558;-51
2024/04/02 07:04:28;;;;;;;12.30;6.68;;;;;;;7.63;97.14;100171.09;5040965;28;20508;-48
2024/04/02 07:06:53;;;;;;;11.65;6.80;;;;;;;8.03;95.12;100178.28;5041756;28;20049;-54
2024/04/02 07:09:19;;;;;;;9.90;6.90;;;;;;;7.97;95.90;100173.47;5043941;28;20071;-50
2024/04/02 07:11:45;;;;;;;12.98;6.40;;;;;;;7.90;96.47;100175.81;5068540;28;20071;-50
2024/04/02 07:14:11;;;;;;;12.73;6.57;;;;;;;8.09;95.18;100182.19;5052827;28;20060;-52
2024/04/02 07:16:37;;;;;;;13.15;6.38;;;;;;;8.30;94.56;100189.13;5057118;28;20116;-48
2024/04/02 07:19:02;;;;;;;11.40;5.72;;;;;;;8.22;95.75;100188.97;5054851;28;20443;-51
2024/04/02 07:21:28;;;;;;;12.73;6.32;;;;;;;8.56;94.43;100191.28;5055314;28;20392;-53
2024/04/02 07:23:54;;;;;;;12.48;5.53;;;;;;;8.93;92.91;100191.41;5055874;28;20483;-54
2024/04/02 07:26:20;;;;;;;8.63;5.18;;;;;;;8.50;93.11;100197.13;5068756;28;20056;-51
2024/04/02 07:28:46;;;;;;;8.65;5.05;;;;;;;8.54;93.21;100199.38;5077304;28;20045;-49
2024/04/02 07:31:11;;;;;;;8.65;6.05;;;;;;;8.67;92.21;100199.94;5059009;28;20065;-49
2024/04/02 07:33:37;;;;;;;9.95;4.90;;;;;;;8.52;93.95;100200.47;5053913;28;20124;-48
2024/04/02 07:36:06;;;;;;;11.25;5.82;;;;;;;8.39;94.58;100203.38;5075594;28;20044;-47
2024/04/02 07:38:32;;;;;;;11.02;5.45;;;;;;;8.38;94.23;100207.84;5061973;28;20052;-52
2024/04/02 07:40:59;;;;;;;8.75;4.75;;;;;;;8.73;93.88;100215.34;5060146;28;20045;-50
2024/04/02 07:43:25;;;;;;;11.60;5.18;;;;;;;8.58;93.50;100214.03;5062599;28;20041;-53
2024/04/02 07:45:51;;;;;;;10.30;5.10;;;;;;;8.90;92.03;100213.81;5044050;28;20056;-49
2024/04/02 07:48:17;;;;;;;11.32;5.13;;;;;;;8.99;91.80;100220.13;5055492;28;20056;-51
2024/04/02 07:50:43;;;;;;;9.60;4.82;;;;;;;8.72;92.81;100223.44;5064892;28;20488;-51
2024/04/02 07:53:09;;;;;;;11.57;5.00;;;;;;;8.67;93.76;100229.16;5047421;28;20514;-51
2024/04/02 07:55:35;;;;;;;13.45;5.55;;;;;;;8.83;93.18;100231.28;5064143;28;20048;-48
2024/04/02 07:58:01;;;;;;;11.40;4.70;;;;;;;8.96;92.83;100226.56;5064673;28;20435;-48
2024/04/02 08:00:26;;;;;;;10.38;5.55;;;;;;;9.04;92.42;100225.84;5058623;28;20063;-51
2024/04/02 08:02:52;;;;;;;10.95;4.43;;;;;;;8.36;93.82;100232.88;5057696;28;20707;-48
2024/04/02 08:05:18;;;;;;;9.70;4.32;;;;;;;8.80;93.33;100228.91;5063028;28;20565;-55
2024/04/02 08:07:47;;;;;;;11.65;5.18;;;;;;;8.84;93.58;100239.13;5061944;28;20106;-50
2024/04/02 08:10:13;;;;;;;10.38;4.35;;;;;;;8.90;93.40;100234.25;5062568;28;20056;-52
2024/04/02 08:12:40;;;;;;;9.48;4.80;;;;;;;8.67;92.97;100236.28;5060914;28;20049;-53
2024/04/02 08:15:06;;;;;;;11.63;5.10;;;;;;;8.77;94.31;100243.31;5061912;28;20778;-48
2024/04/02 08:17:32;;;;;;;10.63;4.65;;;;;;;8.87;93.90;100243.31;5053139;28;20514;-53
2024/04/02 08:19:58;;;;;;;13.15;5.25;;;;;;;9.15;92.11;100246.97;5078483;28;20052;-53
2024/04/02 08:22:24;;;;;;;8.93;4.57;;;;;;;9.05;92.51;100254.97;5061004;28;20067;-51
2024/04/02 08:24:53;;;;;;;9.77;4.38;;;;;;;8.77;93.50;100253.94;5055947;28;20142;-49
2024/04/02 08:27:18;;;;;;;14.35;5.78;;;;;;;8.86;94.52;100257.56;5057479;28;20381;-52
2024/04/02 08:29:45;;;;;;;12.88;5.35;;;;;;;9.35;93.28;100259.28;5058868;28;20132;-50
2024/04/02 08:32:11;;;;;;;12.10;5.25;;;;;;;9.36;92.03;100268.94;5060856;28;20150;-51
2024/04/02 08:34:36;;;;;;;13.90;5.35;;;;;;;9.07;92.62;100270.75;5051715;28;20550;-51
2024/04/02 08:37:02;;;;;;;14.30;4.93;;;;;;;9.52;91.05;100269.25;5075953;28;20044;-47
2024/04/02 08:39:28;;;;;;;11.27;4.82;;;;;;;9.18;91.82;100274.13;5041237;28;20048;-51
2024/04/02 08:41:59;;;;;;;10.32;4.88;;;;;;;9.39;92.33;100281.16;5064370;28;20057;-46
2024/04/02 08:44:26;;;;;;;13.68;5.10;;;;;;;9.17;92.56;100287.56;5060304;28;20045;-51
2024/04/02 08:46:52;;;;;;;12.77;4.85;;;;;;;9.37;91.57;100278.59;5063765;28;20499;-52
2024/04/02 08:49:18;;;;;;;13.50;4.70;;;;;;;9.47;91.55;100287.44;5066249;28;20087;-51
2024/04/02 08:51:44;;;;;;;12.60;4.93;;;;;;;9.69;89.48;100288.94;5061855;28;20044;-49
2024/04/02 08:54:10;;;;;;;9.45;4.72;;;;;;;9.33;91.16;100282.50;5075874;28;20103;-48
2024/04/02 08:56:36;;;;;;;8.77;4.50;;;;;;;9.37;90.78;100291.06;5058171;28;20053;-48
2024/04/02 08:59:03;;;;;;;11.73;4.80;;;;;;;9.30;90.84;100287.28;5061415;28;20118;-47
2024/04/02 09:01:30;;;;;;;10.70;4.90;;;;;;;9.75;90.84;100300.84;5065622;28;20048;-51
2024/04/02 09:03:59;;;;;;;7.65;4.18;;;;;;;9.56;90.59;100286.59;5063921;28;20422;-51
2024/04/02 09:06:25;;;;;;;9.63;4.25;;;;;;;8.95;92.44;100295.78;5071864;28;20052;-50
2024/04/02 09:08:52;;;;;;;11.95;3.97;;;;;;;9.53;91.37;100291.38;5064527;28;20056;-50
2024/04/02 09:11:19;;;;;;;12.82;5.20;;;;;;;9.55;91.93;100295.56;5062255;28;20052;-51
2024/04/02 09:13:45;;;;;;;11.38;4.47;;;;;;;9.96;91.91;100290.84;5063735;28;20517;-49
2024/04/02 09:16:10;;;;;;;13.50;4.68;;;;;;;10.05;90.26;100295.31;5062932;28;20563;-52
2024/04/02 09:18:40;;;;;;;9.93;4.50;;;;;;;10.39;89.48;100293.78;5070241;28;20115;-52
2024/04/02 09:21:06;;;;;;;11.53;5.67;;;;;;;10.70;87.70;100294.34;5062618;28;20044;-46
2024/04/02 09:23:32;;;;;;;13.13;4.65;;;;;;;10.89;85.75;100293.44;5068004;28;20526;-50
2024/04/02 09:25:58;;;;;;;12.93;5.40;;;;;;;10.63;87.20;100306.59;5068275;28;20048;-52
2024/04/02 09:28:24;;;;;;;13.00;4.82;;;;;;;10.77;86.87;100302.59;5061758;28;20054;-54
2024/04/02 09:30:51;;;;;;;13.23;4.00;;;;;;;10.24;87.47;100305.91;5066932;28;20433;-49
2024/04/02 09:33:18;;;;;;;12.85;4.53;;;;;;;10.36;88.01;100298.56;5060258;28;20049;-54
2024/04/02 09:36:03;;;;;;;10.50;4.25;;;;;;;10.32;88.22;100303.34;5065630;28;20568;-53
2024/04/02 09:38:30;;;;;;;10.73;4.50;;;;;;;10.74;87.33;100310.91;5060807;28;20477;-51
2024/04/02 09:40:57;;;;;;;12.07;4.22;;;;;;;10.80;86.45;100308.47;5085376;28;20053;-51
2024/04/02 09:43:24;;;;;;;10.00;4.50;;;;;;;10.85;85.64;100307.19;5060987;28;20048;-48
2024/04/02 09:45:51;;;;;;;19.63;6.45;;;;;;;11.11;84.12;100306.31;5073408;28;20041;-49
2024/04/02 09:48:22;;;;;;;11.98;4.78;;;;;;;10.66;85.21;100306.31;5058866;28;20052;-49
2024/04/02 09:50:52;;;;;;;12.43;4.45;;;;;;;10.74;85.09;100314.41;5058856;28;20053;-53
2024/04/02 09:53:19;;;;;;;12.25;4.05;;;;;;;10.63;85.79;100321.75;5059337;28;20471;-54
2024/04/02 09:55:48;;;;;;;9.95;4.25;;;;;;;10.63;85.72;100317.25;5060550;28;20052;-50
2024/04/02 09:58:15;;;;;;;15.82;5.18;;;;;;;10.47;84.84;100332.19;5060931;28;20044;-53
2024/04/02 10:00:46;;;;;;;13.02;4.72;;;;;;;10.76;84.33;100335.59;5057485;28;20404;-49
2024/04/02 10:03:13;;;;;;;14.90;5.75;;;;;;;11.04;83.73;100329.22;5052059;28;20056;-52
2024/04/02 10:05:39;;;;;;;11.32;4.95;;;;;;;11.40;81.02;100327.44;5054534;28;20051;-53
2024/04/02 10:08:09;;;;;;;13.25;5.50;;;;;;;10.78;82.47;100329.09;5055951;28;20040;-53
2024/04/02 10:10:41;;;;;;;12.80;4.50;;;;;;;11.13;82.07;100324.81;5068394;28;20124;-52
2024/04/02 10:13:07;;;;;;;16.77;5.00;;;;;;;10.61;84.14;100329.06;5043693;28;20059;-55
2024/04/02 10:15:34;;;;;;;19.90;5.65;;;;;;;10.33;84.03;100337.00;5050176;28;20411;-50
2024/04/02 10:18:01;;;;;;;13.20;5.57;;;;;;;11.21;81.34;100330.25;5056945;28;20045;-52
2024/04/02 10:20:32;;;;;;;12.63;4.65;;;;;;;11.32;80.59;100332.69;5052909;28;20051;-53
2024/04/02 10:23:00;;;;;;;9.77;5.65;;;;;;;11.22;79.89;100339.09;5058508;28;20049;-55
2024/04/02 10:25:28;;;;;;;12.82;4.63;;;;;;;11.19;80.34;100345.56;5059205;28;20129;-50
2024/04/02 10:27:59;;;;;;;13.88;5.43;;;;;;;11.15;79.38;100337.03;5060576;28;20044;-50
2024/04/02 10:30:26;;;;;;;12.52;5.13;;;;;;;11.03;80.17;100353.41;5059552;28;20052;-53
2024/04/02 10:32:54;;;;;;;14.18;5.93;;;;;;;10.97;81.13;100345.97;5060476;28;20051;-49
2024/04/02 10:35:27;;;;;;;10.90;5.35;;;;;;;11.28;80.49;100343.81;5055758;28;20476;-51
2024/04/02 10:37:58;;;;;;;18.02;6.82;;;;;;;11.50;79.67;100338.03;5058696;28;20044;-52
2024/04/02 10:40:25;;;;;;;12.88;5.75;;;;;;;11.10;80.70;100341.16;5056697;28;20055;-51
2024/04/02 10:42:52;;;;;;;10.63;5.53;;;;;;;11.36;80.14;100347.41;5060017;28;20055;-50
2024/04/02 10:45:19;;;;;;;17.20;5.70;;;;;;;11.68;79.07;100338.88;5054025;28;20168;-49
2024/04/02 10:47:48;;;;;;;15.20;6.05;;;;;;;11.28;79.10;100344.66;5060521;28;20040;-53
2024/04/02 10:50:15;;;;;;;14.57;5.80;;;;;;;11.45;79.95;100338.47;5074042;28;20051;-50
2024/04/02 10:52:41;;;;;;;14.05;5.45;;;;;;;11.46;79.25;100345.50;5075288;28;20041;-51
2024/04/02 10:55:06;;;;;;;15.02;6.00;;;;;;;11.29;79.77;100351.69;5056844;28;20053;-51
2024/04/02 10:57:33;;;;;;;12.90;5.65;;;;;;;11.39;78.56;100348.91;5066626;28;20521;-51
2024/04/02 11:00:01;;;;;;;14.30;5.78;;;;;;;11.64;78.35;100350.03;5066280;28;20059;-52
2024/04/02 11:02:27;;;;;;;10.43;5.15;;;;;;;11.33;78.01;100353.03;5068600;28;20059;-55
2024/04/02 11:04:54;;;;;;;12.40;5.85;;;;;;;11.35;77.83;100352.91;5065114;28;20044;-50
2024/04/02 11:07:22;;;;;;;9.80;5.55;;;;;;;11.21;79.25;100354.25;5065110;28;20048;-51
2024/04/02 11:09:48;;;;;;;10.63;4.95;;;;;;;11.68;77.19;100343.38;5066197;28;20044;-48
2024/04/02 11:12:15;;;;;;;16.58;5.18;;;;;;;11.85;77.59;100347.88;5062267;28;20383;-51
2024/04/02 11:14:41;;;;;;;12.52;4.45;;;;;;;11.57;78.01;100353.28;5056793;28;20055;-54
2024/04/02 11:17:08;;;;;;;10.40;5.13;;;;;;;12.30;75.68;100347.69;5063448;28;20423;-53
2024/04/02 11:19:36;;;;;;;9.77;4.13;;;;;;;12.03;74.66;100351.34;5059891;28;20067;-51